createdAt,value
2019-05-10T00:00:18.607Z,5.03
2019-05-10T00:03:06.263Z,5.63
2019-05-10T00:05:53.584Z,5.73
2019-05-10T00:08:41.271Z,5.70
2019-05-10T00:11:33.002Z,6.07
2019-05-10T00:14:25.236Z,5.07
2019-05-10T00:16:58.077Z,5.67
2019-05-10T00:19:27.668Z,5.33
2019-05-10T00:21:57.315Z,5.37
2019-05-10T00:24:26.915Z,5.40
2019-05-10T00:26:57.580Z,5.23
2019-05-10T00:29:27.231Z,3.50
2019-05-10T00:31:56.805Z,4.90
2019-05-10T00:34:26.377Z,5.00
2019-05-10T00:36:55.979Z,5.23
2019-05-10T00:39:26.619Z,5.20
2019-05-10T00:41:56.191Z,5.43
2019-05-10T00:44:26.791Z,5.40
2019-05-10T00:46:56.341Z,6.10
2019-05-10T00:49:25.924Z,6.63
2019-05-10T00:51:55.529Z,6.00
2019-05-10T00:54:25.129Z,6.63
2019-05-10T00:56:54.780Z,6.47
2019-05-10T00:59:24.409Z,6.43
2019-05-10T01:01:54.045Z,5.23
2019-05-10T01:04:24.662Z,5.13
2019-05-10T01:06:56.317Z,5.83
2019-05-10T01:09:26.582Z,6.13
2019-05-10T01:11:56.213Z,5.20
2019-05-10T01:14:25.797Z,6.13
2019-05-10T01:16:55.422Z,5.87
2019-05-10T01:19:25.070Z,5.60
2019-05-10T01:21:54.668Z,5.60
2019-05-10T01:24:24.207Z,5.20
2019-05-10T01:26:53.756Z,5.70
2019-05-10T01:29:23.368Z,5.73
2019-05-10T01:31:52.938Z,5.93
2019-05-10T01:34:22.477Z,6.33
2019-05-10T01:36:52.032Z,5.53
2019-05-10T01:39:21.591Z,5.60
2019-05-10T01:41:51.139Z,6.43
2019-05-10T01:44:20.702Z,5.80
2019-05-10T01:46:50.234Z,6.37
2019-05-10T01:49:19.780Z,5.80
2019-05-10T01:51:49.350Z,5.63
2019-05-10T01:54:18.888Z,5.93
2019-05-10T01:56:48.455Z,6.17
2019-05-10T01:59:18.160Z,5.57
2019-05-10T02:01:47.765Z,6.03
2019-05-10T02:04:18.018Z,5.90
2019-05-10T02:06:47.956Z,6.03
2019-05-10T02:09:17.649Z,6.07
2019-05-10T02:11:47.225Z,6.03
2019-05-10T02:14:16.825Z,6.17
2019-05-10T02:16:46.583Z,6.50
2019-05-10T02:19:16.305Z,6.30
2019-05-10T02:21:46.192Z,6.33
2019-05-10T02:24:16.213Z,7.27
2019-05-10T02:26:46.173Z,7.23
2019-05-10T02:29:17.467Z,7.43
2019-05-10T02:31:56.305Z,6.90
2019-05-10T02:34:27.915Z,7.90
2019-05-10T02:36:57.788Z,6.00
2019-05-10T02:39:27.684Z,7.30
2019-05-10T02:41:57.704Z,6.67
2019-05-10T02:44:27.489Z,6.13
2019-05-10T02:46:57.195Z,6.27
2019-05-10T02:49:26.864Z,7.00
2019-05-10T02:51:56.584Z,7.23
2019-05-10T02:54:26.428Z,6.27
2019-05-10T02:56:56.288Z,6.47
2019-05-10T02:59:27.183Z,7.80
2019-05-10T03:01:58.207Z,8.20
2019-05-10T03:04:37.465Z,7.30
2019-05-10T03:07:08.302Z,6.87
2019-05-10T03:09:39.061Z,6.57
2019-05-10T03:12:40.015Z,6.43
2019-05-10T03:15:11.567Z,6.20
2019-05-10T03:17:41.626Z,7.17
2019-05-10T03:20:12.430Z,5.73
2019-05-10T03:22:43.622Z,5.90
2019-05-10T03:25:15.079Z,5.47
2019-05-10T03:27:45.005Z,6.10
2019-05-10T03:30:15.033Z,6.60
2019-05-10T03:32:44.687Z,6.70
2019-05-10T03:35:14.464Z,7.00
2019-05-10T03:37:44.499Z,7.00
2019-05-10T03:40:14.354Z,7.00
2019-05-10T03:42:44.049Z,6.63
2019-05-10T03:45:13.996Z,6.77
2019-05-10T03:47:43.686Z,5.63
2019-05-10T03:50:13.587Z,6.50
2019-05-10T03:52:43.621Z,5.50
2019-05-10T03:55:13.511Z,5.50
2019-05-10T03:57:43.253Z,6.50
2019-05-10T04:00:14.029Z,6.03
2019-05-10T04:02:43.787Z,5.90
2019-05-10T04:05:14.094Z,5.77
2019-05-10T04:07:43.996Z,6.63
2019-05-10T04:10:14.001Z,6.60
2019-05-10T04:12:43.660Z,6.50
2019-05-10T04:15:13.456Z,6.33
2019-05-10T04:17:43.224Z,6.13
2019-05-10T04:20:13.003Z,5.20
2019-05-10T04:22:42.750Z,5.90
2019-05-10T04:25:12.678Z,4.60
2019-05-10T04:27:42.422Z,4.47
2019-05-10T04:30:12.825Z,4.57
2019-05-10T04:32:42.457Z,4.30
2019-05-10T04:35:12.206Z,3.80
2019-05-10T04:37:42.772Z,3.70
2019-05-10T04:40:12.585Z,4.57
2019-05-10T04:42:42.386Z,4.60
2019-05-10T04:45:12.477Z,3.77
2019-05-10T04:47:42.450Z,4.13
2019-05-10T04:50:12.487Z,3.90
2019-05-10T04:52:42.121Z,4.20
2019-05-10T04:55:11.966Z,4.23
2019-05-10T04:57:50.667Z,4.23
2019-05-10T05:00:13.070Z,4.10
2019-05-10T05:02:47.668Z,4.37
2019-05-10T05:05:17.540Z,3.93
2019-05-10T05:07:47.296Z,3.93
2019-05-10T05:10:17.199Z,4.20
2019-05-10T05:12:47.029Z,4.03
2019-05-10T05:15:16.953Z,4.67
2019-05-10T05:17:46.507Z,3.93
2019-05-10T05:20:16.050Z,4.00
2019-05-10T05:22:45.576Z,4.63
2019-05-10T05:25:15.156Z,4.40
2019-05-10T05:27:44.718Z,4.80
2019-05-10T05:30:16.275Z,5.20
2019-05-10T05:32:45.906Z,4.90
2019-05-10T05:35:15.676Z,5.37
2019-05-10T05:37:45.223Z,4.53
2019-05-10T05:40:15.100Z,4.73
2019-05-10T05:42:44.681Z,4.70
2019-05-10T05:45:14.452Z,4.87
2019-05-10T05:47:44.872Z,3.83
2019-05-10T05:50:14.750Z,5.37
2019-05-10T05:52:44.424Z,5.50
2019-05-10T05:55:14.145Z,5.03
2019-05-10T05:57:43.716Z,5.17
2019-05-10T06:00:13.453Z,5.27
2019-05-10T06:02:44.851Z,5.77
2019-05-10T06:05:32.206Z,5.83
2019-05-10T06:07:46.644Z,5.40
2019-05-10T06:10:17.838Z,5.60
2019-05-10T06:12:50.306Z,5.40
2019-05-10T06:15:23.209Z,5.90
2019-05-10T06:17:56.793Z,5.83
2019-05-10T06:20:21.626Z,5.70
2019-05-10T06:23:05.620Z,5.30
2019-05-10T06:25:38.094Z,4.93
2019-05-10T06:27:53.797Z,4.37
2019-05-10T06:30:23.640Z,4.17
2019-05-10T06:32:59.893Z,4.30
2019-05-10T06:35:24.596Z,4.10
2019-05-10T06:37:54.240Z,3.57
2019-05-10T06:40:33.218Z,3.93
2019-05-10T06:42:55.050Z,2.93
2019-05-10T06:45:24.688Z,2.80
2019-05-10T06:47:54.275Z,2.90
2019-05-10T06:50:29.814Z,2.40
2019-05-10T06:53:00.638Z,2.67
2019-05-10T06:55:26.493Z,2.50
2019-05-10T06:58:00.555Z,2.50
2019-05-10T07:00:27.406Z,2.53
2019-05-10T07:02:56.984Z,2.03
2019-05-10T07:05:26.600Z,1.93
2019-05-10T07:08:00.609Z,1.83
2019-05-10T07:10:27.449Z,1.80
2019-05-10T07:13:03.417Z,1.83
2019-05-10T07:15:28.734Z,2.00
2019-05-10T07:17:58.329Z,2.70
2019-05-10T07:20:29.489Z,1.57
2019-05-10T07:23:00.027Z,2.17
2019-05-10T07:25:30.570Z,1.53
2019-05-10T07:28:00.204Z,2.40
2019-05-10T07:30:33.067Z,2.00
2019-05-10T07:33:02.807Z,2.10
2019-05-10T07:35:36.688Z,2.17
2019-05-10T07:38:04.690Z,1.90
2019-05-10T07:40:34.449Z,1.67
2019-05-10T07:43:04.231Z,2.33
2019-05-10T07:45:33.881Z,2.43
2019-05-10T07:48:08.129Z,2.80
2019-05-10T07:50:34.841Z,2.50
2019-05-10T07:53:04.402Z,2.70
2019-05-10T07:55:34.045Z,2.80
2019-05-10T07:58:05.127Z,2.90
2019-05-10T08:00:37.905Z,2.43
2019-05-10T08:03:15.244Z,2.50
2019-05-10T08:05:39.114Z,3.00
2019-05-10T08:08:10.179Z,2.70
2019-05-10T08:10:39.744Z,3.07
2019-05-10T08:13:09.331Z,3.03
2019-05-10T08:15:38.873Z,3.67
2019-05-10T08:18:09.859Z,3.97
2019-05-10T08:20:49.617Z,3.37
2019-05-10T08:23:12.879Z,3.33
2019-05-10T08:25:46.756Z,3.53
2019-05-10T08:28:13.470Z,3.20
2019-05-10T08:30:51.768Z,3.87
2019-05-10T08:33:16.911Z,4.67
2019-05-10T08:35:46.839Z,4.30
2019-05-10T08:38:17.757Z,4.90
2019-05-10T08:40:47.339Z,5.30
2019-05-10T08:43:17.201Z,5.13
2019-05-10T08:45:49.746Z,6.60
2019-05-10T08:48:19.040Z,6.80
2019-05-10T08:50:55.907Z,6.70
2019-05-10T08:53:19.952Z,7.47
2019-05-10T08:55:49.546Z,7.17
2019-05-10T08:58:21.639Z,7.20
2019-05-10T09:01:04.739Z,6.77
2019-05-10T09:03:22.747Z,7.47
2019-05-10T09:05:52.679Z,7.80
2019-05-10T09:08:27.241Z,8.50
2019-05-10T09:10:53.578Z,8.47
2019-05-10T09:13:23.152Z,8.33
2019-05-10T09:15:56.766Z,8.87
2019-05-10T09:18:24.078Z,10.27
2019-05-10T09:20:54.238Z,9.70
2019-05-10T09:23:24.970Z,9.90
2019-05-10T09:25:54.622Z,10.20
2019-05-10T09:28:24.281Z,10.77
2019-05-10T09:31:00.486Z,11.30
2019-05-10T09:33:25.245Z,10.70
2019-05-10T09:35:55.194Z,11.10
2019-05-10T09:38:28.606Z,10.83
2019-05-10T09:40:56.506Z,11.50
2019-05-10T09:43:26.317Z,11.20
2019-05-10T09:45:55.867Z,10.07
2019-05-10T09:48:25.464Z,8.93
2019-05-10T09:50:56.331Z,9.73
2019-05-10T09:53:29.487Z,9.47
2019-05-10T09:56:02.581Z,9.93
2019-05-10T09:58:28.986Z,9.83
2019-05-10T10:01:13.846Z,10.37
2019-05-10T10:03:30.314Z,9.57
2019-05-10T10:06:07.396Z,9.37
2019-05-10T10:08:32.307Z,8.97
2019-05-10T10:11:11.521Z,9.77
2019-05-10T10:13:40.038Z,9.83
2019-05-10T10:16:12.633Z,9.90
2019-05-10T10:18:37.213Z,9.10
2019-05-10T10:21:07.118Z,10.10
2019-05-10T10:23:37.786Z,10.07
2019-05-10T10:26:07.648Z,10.13
2019-05-10T10:28:39.599Z,11.77
2019-05-10T10:31:08.715Z,12.13
2019-05-10T10:33:38.316Z,11.33
2019-05-10T10:36:10.642Z,12.00
2019-05-10T10:38:45.351Z,14.00
2019-05-10T10:41:10.699Z,12.13
2019-05-10T10:43:40.352Z,14.27
2019-05-10T10:46:12.520Z,12.77
2019-05-10T10:48:43.520Z,13.93
2019-05-10T10:51:13.693Z,13.17
2019-05-10T10:53:43.417Z,13.23
2019-05-10T10:56:13.087Z,12.20
2019-05-10T10:58:42.661Z,14.17
2019-05-10T11:01:21.582Z,12.63
2019-05-10T11:03:43.718Z,12.90
2019-05-10T11:06:15.310Z,13.93
2019-05-10T11:08:44.723Z,12.73
2019-05-10T11:11:14.390Z,12.80
2019-05-10T11:13:45.885Z,9.70
2019-05-10T11:16:15.906Z,12.13
2019-05-10T11:21:23.283Z,9.40
2019-05-10T11:23:52.525Z,9.37
2019-05-10T11:26:26.930Z,8.30
2019-05-10T11:28:53.507Z,8.50
2019-05-10T11:31:23.073Z,9.07
2019-05-10T11:33:58.229Z,8.53
2019-05-10T11:36:23.909Z,9.20
2019-05-10T11:38:58.572Z,9.30
2019-05-10T11:41:24.946Z,9.23
2019-05-10T11:43:57.806Z,6.70
2019-05-10T11:46:28.067Z,5.10
2019-05-10T11:48:57.581Z,3.33
2019-05-10T11:51:27.264Z,3.03
2019-05-10T11:53:59.643Z,3.93
2019-05-10T11:56:28.260Z,3.97
2019-05-10T11:58:57.972Z,4.93
2019-05-10T12:01:27.544Z,4.93
2019-05-10T12:03:57.139Z,5.20
2019-05-10T12:06:26.837Z,5.90
2019-05-10T12:09:00.994Z,6.97
2019-05-10T12:11:33.553Z,7.27
2019-05-10T12:14:02.118Z,7.70
2019-05-10T12:16:33.455Z,7.30
2019-05-10T12:19:10.570Z,7.13
2019-05-10T12:21:33.419Z,7.17
2019-05-10T12:24:26.238Z,6.17
2019-05-10T12:29:12.440Z,5.70
2019-05-10T12:31:37.887Z,4.97
2019-05-10T12:34:12.787Z,4.20
2019-05-10T12:36:38.902Z,5.00
2019-05-10T12:39:08.538Z,4.67
2019-05-10T12:41:39.777Z,4.40
2019-05-10T12:44:11.194Z,4.20
2019-05-10T12:46:42.193Z,4.33
2019-05-10T12:49:12.155Z,4.63
2019-05-10T12:51:43.241Z,4.80
2019-05-10T12:54:13.079Z,4.43
2019-05-10T12:56:45.935Z,4.70
2019-05-10T12:59:13.972Z,4.23
2019-05-10T13:01:43.545Z,5.20
2019-05-10T13:04:14.854Z,4.40
2019-05-10T13:06:44.516Z,4.10
2019-05-10T13:09:14.152Z,4.40
2019-05-10T13:11:43.763Z,3.00
2019-05-10T13:14:13.432Z,2.50
2019-05-10T13:16:43.015Z,2.53
2019-05-10T13:19:14.160Z,2.37
2019-05-10T13:21:43.885Z,2.30
2019-05-10T13:24:13.546Z,1.50
2019-05-10T13:26:43.067Z,1.70
2019-05-10T13:29:12.711Z,1.33
2019-05-10T13:31:44.437Z,1.00
2019-05-10T13:34:14.147Z,1.20
2019-05-10T13:36:44.682Z,1.10
2019-05-10T13:39:19.246Z,1.33
2019-05-10T13:41:45.614Z,1.30
2019-05-10T13:44:15.259Z,1.57
2019-05-10T13:46:44.860Z,2.27
2019-05-10T13:49:14.437Z,1.77
2019-05-10T13:51:44.011Z,2.37
2019-05-10T13:54:13.539Z,2.70
2019-05-10T13:56:45.317Z,3.37
2019-05-10T13:59:17.665Z,3.13
2019-05-10T14:01:49.822Z,2.83
2019-05-10T14:04:18.137Z,3.23
2019-05-10T14:06:47.735Z,2.90
2019-05-10T14:09:20.775Z,3.07
2019-05-10T14:11:48.555Z,3.70
2019-05-10T14:14:20.599Z,3.30
2019-05-10T14:16:49.491Z,3.40
2019-05-10T14:19:22.914Z,3.40
2019-05-10T14:21:50.280Z,3.33
2019-05-10T14:24:21.680Z,3.40
2019-05-10T14:26:56.381Z,3.10
2019-05-10T14:29:33.217Z,3.20
2019-05-10T14:31:54.764Z,3.57
2019-05-10T14:34:24.384Z,3.30
2019-05-10T14:36:53.933Z,2.73
2019-05-10T14:39:23.520Z,3.10
2019-05-10T14:41:53.055Z,3.47
2019-05-10T14:44:22.651Z,3.10
2019-05-10T14:46:52.297Z,3.00
2019-05-10T14:49:22.067Z,3.63
2019-05-10T14:51:58.975Z,3.93
2019-05-10T14:54:22.872Z,4.00
2019-05-10T14:56:54.038Z,4.00
2019-05-10T14:59:23.884Z,4.13
2019-05-10T15:01:53.700Z,4.17
2019-05-10T15:04:43.886Z,4.17
2019-05-10T15:06:54.500Z,4.40
2019-05-10T15:09:24.355Z,3.67
2019-05-10T15:11:53.937Z,3.30
2019-05-10T15:14:23.735Z,3.67
2019-05-10T15:16:53.271Z,3.00
2019-05-10T15:19:26.462Z,3.07
2019-05-10T15:21:54.134Z,2.97
2019-05-10T15:24:23.697Z,3.50
2019-05-10T15:26:53.264Z,3.40
2019-05-10T15:29:24.825Z,3.67
2019-05-10T15:31:54.104Z,3.10
2019-05-10T15:34:23.676Z,2.87
2019-05-10T15:36:53.236Z,2.10
2019-05-10T15:39:28.230Z,2.17
2019-05-10T15:41:59.136Z,2.20
2019-05-10T15:44:31.588Z,1.40
2019-05-10T15:46:58.365Z,1.00
2019-05-10T15:49:27.941Z,0.80
2019-05-10T15:52:16.302Z,0.93
2019-05-10T15:54:28.883Z,0.93
2019-05-10T15:56:58.502Z,0.70
2019-05-10T15:59:28.051Z,0.77
2019-05-10T16:01:57.693Z,1.07
2019-05-10T16:04:27.271Z,0.60
2019-05-10T16:06:56.816Z,0.77
2019-05-10T16:09:26.481Z,0.60
2019-05-10T16:12:01.667Z,0.63
2019-05-10T16:14:27.376Z,0.70
2019-05-10T16:16:56.991Z,1.37
2019-05-10T16:19:26.646Z,1.00
2019-05-10T16:21:58.167Z,1.27
2019-05-10T16:24:28.106Z,1.47
2019-05-10T16:27:00.087Z,1.23
2019-05-10T16:29:33.668Z,0.83
2019-05-10T16:32:00.315Z,1.17
2019-05-10T16:34:32.236Z,1.60
2019-05-10T16:37:01.111Z,1.70
2019-05-10T16:39:30.690Z,1.23
2019-05-10T16:42:00.296Z,1.47
2019-05-10T16:44:30.005Z,1.47
2019-05-10T16:46:59.601Z,1.50
2019-05-10T16:49:29.143Z,1.50
2019-05-10T16:51:58.720Z,1.83
2019-05-10T16:54:28.285Z,1.30
2019-05-10T16:56:59.873Z,1.20
2019-05-10T16:59:29.682Z,1.30
2019-05-10T17:02:04.610Z,1.30
2019-05-10T17:04:37.327Z,0.90
2019-05-10T17:07:03.214Z,0.90
2019-05-10T17:09:32.763Z,0.90
2019-05-10T17:12:02.329Z,0.90
2019-05-10T17:14:31.941Z,0.87
2019-05-10T17:17:01.493Z,1.13
2019-05-10T17:19:34.306Z,0.97
2019-05-10T17:22:02.467Z,0.90
2019-05-10T17:24:32.135Z,1.00
2019-05-10T17:27:01.777Z,0.80
2019-05-10T17:29:33.288Z,1.00
2019-05-10T17:32:02.552Z,0.90
2019-05-10T17:34:32.202Z,1.07
2019-05-10T17:37:01.892Z,1.10
2019-05-10T17:39:32.431Z,0.97
2019-05-10T17:42:04.664Z,1.20
2019-05-10T17:44:34.192Z,1.00
2019-05-10T17:47:03.819Z,1.10
2019-05-10T17:49:33.387Z,1.30
2019-05-10T17:52:03.053Z,1.37
2019-05-10T17:54:33.864Z,1.40
2019-05-10T17:57:03.954Z,1.33
2019-05-10T17:59:33.544Z,1.50
2019-05-10T18:02:03.201Z,1.07
2019-05-10T18:04:32.737Z,1.17
2019-05-10T18:07:02.323Z,1.20
2019-05-10T18:09:31.906Z,1.33
2019-05-10T18:12:01.534Z,1.47
2019-05-10T18:14:31.081Z,1.37
2019-05-10T18:17:00.780Z,1.23
2019-05-10T18:19:30.576Z,1.30
2019-05-10T18:22:02.734Z,1.20
2019-05-10T18:24:36.238Z,1.20
2019-05-10T18:27:02.889Z,1.50
2019-05-10T18:29:32.564Z,1.30
2019-05-10T18:32:02.245Z,1.53
2019-05-10T18:34:33.222Z,1.13
2019-05-10T18:37:03.109Z,0.90
2019-05-10T18:39:32.697Z,1.57
2019-05-10T18:42:02.314Z,1.60
2019-05-10T18:44:32.010Z,1.20
2019-05-10T18:47:01.595Z,1.33
2019-05-10T18:49:31.254Z,1.57
2019-05-10T18:52:04.408Z,1.03
2019-05-10T18:54:32.246Z,1.30
2019-05-10T18:57:04.624Z,1.10
2019-05-10T18:59:33.169Z,1.27
2019-05-10T19:02:02.740Z,1.37
2019-05-10T19:04:32.388Z,1.40
2019-05-10T19:07:09.722Z,1.50
2019-05-10T19:09:33.225Z,1.10
2019-05-10T19:12:03.209Z,1.47
2019-05-10T19:14:32.844Z,1.37
2019-05-10T19:17:03.776Z,1.30
2019-05-10T19:19:41.971Z,1.50
2019-05-10T19:22:12.870Z,1.57
2019-05-10T19:24:42.522Z,1.63
2019-05-10T19:27:12.170Z,1.70
2019-05-10T19:29:45.627Z,1.77
2019-05-10T19:32:18.084Z,1.73
2019-05-10T19:34:48.314Z,1.77
2019-05-10T19:37:28.417Z,2.20
2019-05-10T19:39:47.407Z,2.10
2019-05-10T19:42:17.053Z,2.37
2019-05-10T19:44:46.732Z,2.70
2019-05-10T19:47:17.685Z,3.00
2019-05-10T19:49:51.806Z,2.30
2019-05-10T19:52:21.200Z,2.27
2019-05-10T19:54:50.343Z,1.93
2019-05-10T19:57:19.947Z,2.20
2019-05-10T19:59:50.314Z,2.20
2019-05-10T20:02:20.026Z,2.30
2019-05-10T20:04:49.696Z,2.23
2019-05-10T20:07:19.441Z,2.30
2019-05-10T20:09:49.033Z,2.80
2019-05-10T20:12:18.606Z,2.20
2019-05-10T20:14:48.294Z,2.50
2019-05-10T20:17:18.298Z,2.00
2019-05-10T20:19:47.931Z,2.27
2019-05-10T20:22:17.513Z,2.73
2019-05-10T20:24:47.137Z,2.90
2019-05-10T20:27:16.829Z,2.93
2019-05-10T20:29:46.408Z,2.50
2019-05-10T20:32:15.998Z,2.83
2019-05-10T20:34:45.709Z,2.40
2019-05-10T20:37:15.325Z,2.70
2019-05-10T20:39:44.906Z,2.50
2019-05-10T20:42:14.487Z,2.70
2019-05-10T20:44:44.081Z,2.80
2019-05-10T20:47:13.633Z,2.80
2019-05-10T20:49:43.244Z,2.63
2019-05-10T20:52:12.863Z,2.90
2019-05-10T20:54:42.489Z,2.83
2019-05-10T20:57:12.040Z,2.67
2019-05-10T20:59:41.783Z,2.73
2019-05-10T21:02:11.343Z,2.40
2019-05-10T21:04:40.904Z,2.73
2019-05-10T21:07:10.520Z,2.53
2019-05-10T21:09:40.114Z,2.40
2019-05-10T21:12:09.631Z,2.47
2019-05-10T21:14:39.217Z,2.60
2019-05-10T21:17:09.757Z,2.60
2019-05-10T21:19:39.297Z,2.37
2019-05-10T21:22:08.828Z,2.43
2019-05-10T21:24:38.359Z,2.50
2019-05-10T21:27:07.887Z,2.23
2019-05-10T21:29:37.476Z,2.37
2019-05-10T21:32:07.065Z,2.70
2019-05-10T21:34:36.717Z,3.20
2019-05-10T21:37:06.244Z,2.73
2019-05-10T21:39:35.828Z,2.73
2019-05-10T21:42:05.508Z,3.10
2019-05-10T21:44:35.044Z,2.80
2019-05-10T21:47:04.631Z,3.10
2019-05-10T21:49:34.151Z,3.03
2019-05-10T21:52:03.826Z,2.97
2019-05-10T21:54:33.396Z,2.57
2019-05-10T21:57:03.017Z,2.83
2019-05-10T21:59:32.552Z,2.90
2019-05-10T22:02:02.147Z,3.23
2019-05-10T22:04:31.716Z,2.90
2019-05-10T22:07:01.285Z,3.73
2019-05-10T22:09:30.842Z,3.37
2019-05-10T22:12:00.421Z,3.70
2019-05-10T22:14:30.930Z,2.97
2019-05-10T22:17:00.483Z,3.40
2019-05-10T22:19:30.129Z,3.73
2019-05-10T22:21:59.701Z,3.40
2019-05-10T22:24:29.243Z,3.50
2019-05-10T22:26:58.776Z,3.67
2019-05-10T22:29:28.353Z,3.33
2019-05-10T22:31:57.872Z,3.53
2019-05-10T22:34:27.429Z,4.10
2019-05-10T22:36:56.960Z,4.00
2019-05-10T22:39:26.524Z,3.93
2019-05-10T22:41:56.073Z,4.17
2019-05-10T22:44:25.641Z,4.30
2019-05-10T22:46:55.235Z,4.40
2019-05-10T22:49:24.781Z,4.40
2019-05-10T22:51:55.344Z,4.20
2019-05-10T22:54:24.885Z,4.23
2019-05-10T22:56:54.399Z,4.67
2019-05-10T22:59:24.006Z,4.40
2019-05-10T23:01:53.549Z,4.80
2019-05-10T23:04:24.069Z,5.30
2019-05-10T23:06:53.709Z,5.10
2019-05-10T23:09:25.023Z,4.70
2019-05-10T23:11:54.583Z,5.00
2019-05-10T23:14:24.105Z,5.17
2019-05-10T23:16:53.645Z,4.60
2019-05-10T23:22:18.281Z,4.10
2019-05-10T23:24:48.797Z,3.93
2019-05-10T23:27:18.374Z,3.97
2019-05-10T23:29:48.005Z,3.97
2019-05-10T23:32:17.549Z,3.80
2019-05-10T23:34:47.071Z,4.90
2019-05-10T23:37:16.612Z,5.10
2019-05-10T23:39:46.266Z,4.90
2019-05-10T23:42:15.816Z,5.10
2019-05-10T23:44:45.356Z,4.53
2019-05-10T23:47:14.906Z,4.53
2019-05-10T23:49:44.483Z,5.30
2019-05-10T23:52:14.027Z,4.87
2019-05-10T23:54:43.580Z,5.30
2019-05-10T23:57:13.112Z,4.43
2019-05-10T23:59:42.668Z,4.33
